Pagrindinis puslapis
METAR-TAF:

METAR-TAF

Oro uostai :

Bender Mahšahras, Iranas

platuma: 30-33-23N, ilguma: 049-09-07E, Aukštis: 2 m

Dabartinis oras

Ataskaita buvo paskelbta 16 minutes, ne 11:00 UTC
Vėjas 6 kt iš Pietų/Pietvakarių
Temperatūra 37°C
Drėgmė 37%
Slėgis 1012 hPa
Matomumas: 7000 m

METAR: OIAM 141100Z 21006KT 7000 NSC 37/20 Q1012

Laikas: 14:46 (11:16 UTC)


TAF: trūkstamas

Orai ataskaitas ir orų prognozės (METAR, TAF).

turimą stotys yra geltonos ir raudonos taškus žemėlapyje.

Perkelti pele per norėdami pamatyti stoties vardą.

Tada spustelėkite, norėdami matyti oro stebėjimo ir prognozės.

Norėdami pakeisti žemėlapį: spustelėkite ant žalios mygtukų su juodo kryžiaus žemyn,; žalią mygtuką su brūkšneliu, jei norite nutolinti; arba žalių rodyklių gretimoms žemėlapius.


METAR-TAF: